Carnival Destiny — C6FN4 — position and weather

sailwx.info

Track history (hours):
 
Tides and Currents Weather Stations Pressure Air Temp Water Temp Dewpoint Dewpoint Depression Visibility Wind Speed Wind Dir Waves Ship Positions

Carnival Destiny

Operator: Carnival Cruise Lines

Last reported at 2017-Jul-22 05:11 UTC. Time now 2017-Jul-22 12:43 UTC.
Position N 18°35' W 065°48'.

Type: Passenger vessel. MMSI: 308017000.

Date/timePositionNaut miles runAvg speedWind from/ knotsBaromVisibWave heightAir tempDewpointWater temp
2017-Jul-22 05:11N 18°35' W 065°48'212.8
2017-Jul-22 05:00N 18°35' W 065°51'612.8
2017-Jul-22 04:30N 18°33' W 065°57'713.1
2017-Jul-22 04:00N 18°31' W 066°04'5 9.7
2017-Jul-22 03:30N 18°28' W 066°08'1 2.2
2017-Jul-22 02:57N 18°28' W 066°07'0 0.0
2017-Jul-22 02:27N 18°28' W 066°07'0 0.0
2017-Jul-22 02:00N 18°28' W 066°07'0 0.0
2017-Jul-22 01:30N 18°28' W 066°07'0 0.0
2017-Jul-22 01:00N 18°28' W 066°07'0 0.0
2017-Jul-22 00:30N 18°28' W 066°07'0 0.0
2017-Jul-22 00:00N 18°28' W 066°07'0 0.0
2017-Jul-21 23:30N 18°28' W 066°07'0 0.0
2017-Jul-21 23:00N 18°28' W 066°07'0 0.0
2017-Jul-21 22:30N 18°28' W 066°07'0 0.0
2017-Jul-21 22:00N 18°28' W 066°07'0 0.0
2017-Jul-21 21:30N 18°28' W 066°07'0 0.0
2017-Jul-21 21:00N 18°28' W 066°07'0 0.0
2017-Jul-21 20:30N 18°28' W 066°07'0 0.0
2017-Jul-21 20:00N 18°28' W 066°07'0 0.0
2017-Jul-21 19:30N 18°28' W 066°07'0 0.1
2017-Jul-21 19:01N 18°28' W 066°07'2 4.8
2017-Jul-21 18:30N 18°30' W 066°08'816.1
2017-Jul-21 18:00N 18°38' W 066°10'14821.1
2017-Jul-21 11:00N 21°00' W 066°54'48720.3 090 / 301018.010.8 28.025.226.0
2017-Jul-20 11:00N 28°48' W 069°24'15619.5 180 / 161021.010.8 28.025.226.0
2017-Jul-20 03:00N 31°18' W 070°12'35020.6 220 / 251022.010.8 24.019.426.0
2017-Jul-19 10:00N 36°54' W 072°12'10121.2 170 / 141019.0 5.4 24.021.022.0
2017-Jul-19 05:14N 38°31' W 072°48'720.5
2017-Jul-19 04:54N 38°37' W 072°51'920.7
2017-Jul-19 04:30N 38°45' W 072°56'1020.2
2017-Jul-19 04:00N 38°54' W 072°59'1020.4
2017-Jul-19 03:30N 39°05' W 073°01'1020.3
2017-Jul-19 03:00N 39°14' W 073°05'1020.3
2017-Jul-19 02:31N 39°24' W 073°09'1020.2
2017-Jul-19 02:00N 39°33' W 073°13'1020.1
2017-Jul-19 01:31N 39°43' W 073°15'1020.2
2017-Jul-19 01:00N 39°53' W 073°19'1019.8
2017-Jul-19 00:30N 40°02' W 073°24'1020.0
2017-Jul-19 00:00N 40°10' W 073°31'1019.8
2017-Jul-18 23:30N 40°18' W 073°40'918.8
2017-Jul-18 23:00N 40°26' W 073°47'714.4
2017-Jul-18 22:30N 40°29' W 073°55'815.6
2017-Jul-18 22:00N 40°35' W 074°02'611.7
2017-Jul-18 21:30N 40°41' W 074°02'5 9.4
2017-Jul-18 21:00N 40°45' W 074°01'1 2.1
2017-Jul-18 20:28N 40°46' W 073°60'0 0.0
2017-Jul-18 20:01N 40°46' W 073°60'0 0.0
2017-Jul-18 19:30N 40°46' W 073°60'0 0.0
2017-Jul-18 19:00N 40°46' W 073°60'0 0.0
2017-Jul-18 18:30N 40°46' W 073°60'0 0.0
2017-Jul-18 18:00N 40°46' W 073°60'0 0.0
2017-Jul-18 17:30N 40°46' W 073°60'0 0.0
2017-Jul-18 17:00N 40°46' W 073°60'0 0.0
2017-Jul-18 16:30N 40°46' W 073°60'0 0.0
2017-Jul-18 16:00N 40°46' W 073°60'0 0.0
2017-Jul-18 15:30N 40°46' W 073°60'0 0.0
2017-Jul-18 15:00N 40°46' W 073°60'0 0.0
2017-Jul-18 14:00N 40°46' W 073°60'0 0.0
2017-Jul-18 13:30N 40°46' W 073°60'0 0.0
2017-Jul-18 13:00N 40°46' W 073°60'0 0.0
2017-Jul-18 12:30N 40°46' W 073°60'0 0.0
2017-Jul-18 11:55N 40°46' W 073°60'0 0.0
2017-Jul-18 11:25N 40°46' W 073°60'0 0.0
2017-Jul-18 11:00N 40°46' W 073°60'1 1.1
2017-Jul-18 10:31N 40°46' W 074°00'5 9.2
2017-Jul-18 10:01N 40°41' W 074°02'713.7
2017-Jul-18 09:30N 40°35' W 074°02'815.5
2017-Jul-18 09:00N 40°29' W 073°54'612.2
2017-Jul-18 08:31N 40°26' W 073°48'917.4
2017-Jul-18 08:00N 40°17' W 073°46'1019.1
2017-Jul-18 07:30N 40°08' W 073°44'1019.7
2017-Jul-18 07:01N 39°58' W 073°43'1020.3
2017-Jul-18 06:30N 39°48' W 073°41'1020.7
2017-Jul-18 06:01N 39°38' W 073°41'1020.7
2017-Jul-18 05:31N 39°27' W 073°41'1220.7
2017-Jul-18 04:56N 39°15' W 073°42'1020.7
2017-Jul-18 04:28N 39°06' W 073°42'50519.8
2017-Jul-17 03:00N 30°42' W 073°00'34220.1 220 / 151019.010.8 25.022.027.0
2017-Jul-16 10:00N 25°06' W 071°48'14020.0 110 / 81017.0 5.4 27.024.125.0
2017-Jul-16 03:00N 22°48' W 071°24'17610.3 100 / 251017.010.8 24.021.027.0
2017-Jul-15 10:00N 20°42' W 069°12'21720.3 100 / 101017.0 5.4 27.024.125.0
2017-Jul-14 23:20N 18°49' W 065°56'24 1.2
2017-Jul-14 02:57N 18°28' W 066°07'0 0.0
2017-Jul-14 02:30N 18°28' W 066°07'0 0.0
2017-Jul-14 02:00N 18°28' W 066°07'0 0.0
2017-Jul-14 01:30N 18°28' W 066°07'0 0.0
2017-Jul-14 01:00N 18°28' W 066°07'0 0.0
2017-Jul-14 00:30N 18°28' W 066°07'0 0.0
2017-Jul-14 00:00N 18°28' W 066°07'0 0.0
2017-Jul-13 23:30N 18°28' W 066°07'0 0.0
2017-Jul-13 23:00N 18°28' W 066°07'0 0.0
2017-Jul-13 22:30N 18°28' W 066°07'21217.0
2017-Jul-13 10:00N 21°54' W 067°00'47119.6 120 / 251018.010.8 27.024.125.0
2017-Jul-12 10:00N 29°30' W 069°12'   120 / 201020.010.8 28.026.627.0
Track history (hours):
 
Tides and Currents Weather Stations Pressure Air Temp Water Temp Dewpoint Dewpoint Depression Visibility Wind Speed Wind Dir Waves Ship Positions

Carnival Destiny

Operator: Carnival Cruise Lines

Last reported at 2017-Jul-22 05:11 UTC. Time now 2017-Jul-22 12:43 UTC.
Position N 18°35' W 065°48'.

Type: Passenger vessel. MMSI: 308017000.

Date/timePositionNaut miles runAvg speedWind from/ knotsBaromVisibWave heightAir tempDewpointWater temp
2017-Jul-22 05:11N 18°35' W 065°48'212.8
2017-Jul-22 05:00N 18°35' W 065°51'612.8
2017-Jul-22 04:30N 18°33' W 065°57'713.1
2017-Jul-22 04:00N 18°31' W 066°04'5 9.7
2017-Jul-22 03:30N 18°28' W 066°08'1 2.2
2017-Jul-22 02:57N 18°28' W 066°07'0 0.0
2017-Jul-22 02:27N 18°28' W 066°07'0 0.0
2017-Jul-22 02:00N 18°28' W 066°07'0 0.0
2017-Jul-22 01:30N 18°28' W 066°07'0 0.0
2017-Jul-22 01:00N 18°28' W 066°07'0 0.0
2017-Jul-22 00:30N 18°28' W 066°07'0 0.0
2017-Jul-22 00:00N 18°28' W 066°07'0 0.0
2017-Jul-21 23:30N 18°28' W 066°07'0 0.0
2017-Jul-21 23:00N 18°28' W 066°07'0 0.0
2017-Jul-21 22:30N 18°28' W 066°07'0 0.0
2017-Jul-21 22:00N 18°28' W 066°07'0 0.0
2017-Jul-21 21:30N 18°28' W 066°07'0 0.0
2017-Jul-21 21:00N 18°28' W 066°07'0 0.0
2017-Jul-21 20:30N 18°28' W 066°07'0 0.0
2017-Jul-21 20:00N 18°28' W 066°07'0 0.0
2017-Jul-21 19:30N 18°28' W 066°07'0 0.1
2017-Jul-21 19:01N 18°28' W 066°07'2 4.8
2017-Jul-21 18:30N 18°30' W 066°08'816.1
2017-Jul-21 18:00N 18°38' W 066°10'14821.1
2017-Jul-21 11:00N 21°00' W 066°54'48720.3 090 / 301018.010.8 28.025.226.0
2017-Jul-20 11:00N 28°48' W 069°24'15619.5 180 / 161021.010.8 28.025.226.0
2017-Jul-20 03:00N 31°18' W 070°12'35020.6 220 / 251022.010.8 24.019.426.0
2017-Jul-19 10:00N 36°54' W 072°12'10121.2 170 / 141019.0 5.4 24.021.022.0
2017-Jul-19 05:14N 38°31' W 072°48'720.5
2017-Jul-19 04:54N 38°37' W 072°51'920.7
2017-Jul-19 04:30N 38°45' W 072°56'1020.2
2017-Jul-19 04:00N 38°54' W 072°59'1020.4
2017-Jul-19 03:30N 39°05' W 073°01'1020.3
2017-Jul-19 03:00N 39°14' W 073°05'1020.3
2017-Jul-19 02:31N 39°24' W 073°09'1020.2
2017-Jul-19 02:00N 39°33' W 073°13'1020.1
2017-Jul-19 01:31N 39°43' W 073°15'1020.2
2017-Jul-19 01:00N 39°53' W 073°19'1019.8
2017-Jul-19 00:30N 40°02' W 073°24'1020.0
2017-Jul-19 00:00N 40°10' W 073°31'1019.8
2017-Jul-18 23:30N 40°18' W 073°40'918.8
2017-Jul-18 23:00N 40°26' W 073°47'714.4
2017-Jul-18 22:30N 40°29' W 073°55'815.6
2017-Jul-18 22:00N 40°35' W 074°02'611.7
2017-Jul-18 21:30N 40°41' W 074°02'5 9.4
2017-Jul-18 21:00N 40°45' W 074°01'1 2.1
2017-Jul-18 20:28N 40°46' W 073°60'0 0.0
2017-Jul-18 20:01N 40°46' W 073°60'0 0.0
2017-Jul-18 19:30N 40°46' W 073°60'0 0.0
2017-Jul-18 19:00N 40°46' W 073°60'0 0.0
2017-Jul-18 18:30N 40°46' W 073°60'0 0.0
2017-Jul-18 18:00N 40°46' W 073°60'0 0.0
2017-Jul-18 17:30N 40°46' W 073°60'0 0.0
2017-Jul-18 17:00N 40°46' W 073°60'0 0.0
2017-Jul-18 16:30N 40°46' W 073°60'0 0.0
2017-Jul-18 16:00N 40°46' W 073°60'0 0.0
2017-Jul-18 15:30N 40°46' W 073°60'0 0.0
2017-Jul-18 15:00N 40°46' W 073°60'0 0.0
2017-Jul-18 14:00N 40°46' W 073°60'0 0.0
2017-Jul-18 13:30N 40°46' W 073°60'0 0.0
2017-Jul-18 13:00N 40°46' W 073°60'0 0.0
2017-Jul-18 12:30N 40°46' W 073°60'0 0.0
2017-Jul-18 11:55N 40°46' W 073°60'0 0.0
2017-Jul-18 11:25N 40°46' W 073°60'0 0.0
2017-Jul-18 11:00N 40°46' W 073°60'1 1.1
2017-Jul-18 10:31N 40°46' W 074°00'5 9.2
2017-Jul-18 10:01N 40°41' W 074°02'713.7
2017-Jul-18 09:30N 40°35' W 074°02'815.5
2017-Jul-18 09:00N 40°29' W 073°54'612.2
2017-Jul-18 08:31N 40°26' W 073°48'917.4
2017-Jul-18 08:00N 40°17' W 073°46'1019.1
2017-Jul-18 07:30N 40°08' W 073°44'1019.7
2017-Jul-18 07:01N 39°58' W 073°43'1020.3
2017-Jul-18 06:30N 39°48' W 073°41'1020.7
2017-Jul-18 06:01N 39°38' W 073°41'1020.7
2017-Jul-18 05:31N 39°27' W 073°41'1220.7
2017-Jul-18 04:56N 39°15' W 073°42'1020.7
2017-Jul-18 04:28N 39°06' W 073°42'50519.8
2017-Jul-17 03:00N 30°42' W 073°00'34220.1 220 / 151019.010.8 25.022.027.0
2017-Jul-16 10:00N 25°06' W 071°48'14020.0 110 / 81017.0 5.4 27.024.125.0
2017-Jul-16 03:00N 22°48' W 071°24'17610.3 100 / 251017.010.8 24.021.027.0
2017-Jul-15 10:00N 20°42' W 069°12'21720.3 100 / 101017.0 5.4 27.024.125.0
2017-Jul-14 23:20N 18°49' W 065°56'24 1.2
2017-Jul-14 02:57N 18°28' W 066°07'0 0.0
2017-Jul-14 02:30N 18°28' W 066°07'0 0.0
2017-Jul-14 02:00N 18°28' W 066°07'0 0.0
2017-Jul-14 01:30N 18°28' W 066°07'0 0.0
2017-Jul-14 01:00N 18°28' W 066°07'0 0.0
2017-Jul-14 00:30N 18°28' W 066°07'0 0.0
2017-Jul-14 00:00N 18°28' W 066°07'0 0.0
2017-Jul-13 23:30N 18°28' W 066°07'0 0.0
2017-Jul-13 23:00N 18°28' W 066°07'0 0.0
2017-Jul-13 22:30N 18°28' W 066°07'21217.0
2017-Jul-13 10:00N 21°54' W 067°00'47119.6 120 / 251018.010.8 27.024.125.0
2017-Jul-12 10:00N 29°30' W 069°12'   120 / 201020.010.8 28.026.627.0

Dump ship's entire track history